Latest Weather Observations for Casino

IDN60801

Issued at 6:02 pm EDT Saturday 6 February 2016 (issued every 30 minutes, with the page automatically refreshed every 10 minutes)

About weather observations | Map of weather stations | Latest weather observations for NSW | Other Formats
Station Details ID: 058208 Name: CASINO AIRPORT AWS Lat: -28.88 Lon: 153.06 Height: 20.9 m
Data from the previous 72 hours. | See also: Recent months at Casino
Date/Time
EDT
Temp
°C
App
Temp
°C
Dew
Point
Rel
Hum
%
Delta-T
°C
Wind Press
QNH
hPa
Press
MSL
hPa
Rain
since 9 am
mm
Dir
 
Spd
km/h
Gust
km/h
Spd
kts
Gust
kts
06/06:00pm 22.7 24.0 20.2 86 1.6 SSE 13 20 7 11 1011.7 1011.6 2.6
06/05:30pm 23.3 23.8 20.1 82 2.1 S 17 26 9 14 1011.4 1011.3 2.2
06/05:00pm 23.9 25.0 20.4 81 2.3 SSE 15 24 8 13 1011.5 1011.4 2.2
06/04:30pm 23.6 24.7 20.5 83 2.0 S 15 26 8 14 1011.3 1011.2 2.2
06/04:00pm 23.0 23.4 19.8 82 2.1 SSE 17 26 9 14 1011.5 1011.4 1.4
06/03:30pm 25.2 25.0 19.8 72 3.5 S 20 30 11 16 1011.4 1011.3 1.0
06/03:00pm 25.2 25.4 20.2 74 3.3 SSE 19 32 10 17 1011.5 1011.4 1.0
06/02:30pm 25.2 24.5 20.2 74 3.3 SSE 24 39 13 21 1011.7 1011.6 1.0
06/02:00pm 24.9 24.8 19.9 74 3.2 SSE 20 46 11 25 1011.9 1011.8 1.0
06/01:30pm 23.4 23.8 20.7 85 1.8 SSE 19 28 10 15 1012.1 1012.0 1.0
06/01:00pm 24.1 23.7 20.2 79 2.5 S 22 32 12 17 1012.2 1012.1 0.8
06/12:30pm 23.5 22.9 19.8 80 2.4 S 22 32 12 17 1012.7 1012.6 0.8
06/12:00pm 23.3 23.3 20.2 83 2.0 S 20 32 11 17 1013.1 1013.0 0.8
06/11:30am 23.1 23.1 20.1 83 1.9 S 20 30 11 16 1013.2 1013.1 0.8
06/11:00am 22.8 23.3 20.9 89 1.2 S 19 26 10 14 1013.3 1013.2 0.8
06/10:30am 21.9 22.0 20.0 89 1.2 SSW 19 26 10 14 1013.2 1013.1 0.6
06/10:00am 21.8 21.8 19.7 88 1.3 S 19 28 10 15 1013.3 1013.2 0.2
06/09:30am 21.3 21.6 19.6 90 1.1 SSW 17 26 9 14 1013.2 1013.1 0.2
06/09:00am 21.4 21.8 19.9 91 1.0 SSW 17 22 9 12 1013.1 1013.0 3.4
06/08:30am 21.0 21.0 19.7 92 0.8 SSW 19 26 10 14 1012.8 1012.7 3.4
06/08:00am 20.5 21.0 19.2 92 0.8 S 15 20 8 11 1012.8 1012.7 3.4
06/07:30am 20.4 20.8 19.1 92 0.8 SSW 15 24 8 13 1012.3 1012.2 3.0
06/07:00am 20.3 20.7 19.0 92 0.8 S 15 20 8 11 1011.9 1011.8 2.4
06/06:30am 20.2 20.9 18.9 92 0.8 S 13 20 7 11 1011.6 1011.5 2.2
06/06:00am 20.2 20.6 18.9 92 0.8 SSW 15 20 8 11 1011.1 1011.0 1.8
06/05:30am 20.3 20.6 18.8 91 0.9 SSW 15 19 8 10 1010.8 1010.7 1.2
06/05:00am 20.3 20.4 18.4 89 1.2 SSW 15 20 8 11 1010.8 1010.7 0.8
06/04:30am 20.4 20.1 18.3 88 1.3 S 17 22 9 12 1010.6 1010.5 0.2
06/04:00am 21.4 21.1 18.2 82 2.0 SSW 17 24 9 13 1010.7 1010.6 0.0
06/03:30am 21.3 20.6 18.3 83 1.9 SSW 19 24 10 13 1010.6 1010.5 0.0
06/03:00am 21.2 21.6 18.2 83 1.9 SSW 13 19 7 10 1010.8 1010.7 0.0
06/02:30am 21.3 21.2 17.9 81 2.1 SSW 15 22 8 12 1011.3 1011.2 0.0
06/02:00am 21.4 21.7 18.0 81 2.1 SSW 13 17 7 9 1011.4 1011.3 0.0
06/01:30am 21.4 22.0 17.8 80 2.2 SSW 11 15 6 8 1011.5 1011.4 0.0
06/01:00am 21.9 22.7 18.1 79 2.4 SSW 11 17 6 9 1011.9 1011.8 0.0
06/12:30am 22.0 23.1 18.0 78 2.5 SSW 9 13 5 7 1012.3 1012.2 0.0
06/12:00am 22.3 23.4 18.1 77 2.6 SSW 9 11 5 6 1012.5 1012.4 0.0
 
Date/Time
EDT
Temp
°C
App
Temp
°C
Dew
Point
Rel
Hum
%
Delta-T
°C
Wind Press
QNH
hPa
Press
MSL
hPa
Rain
since 9 am
mm
Dir
 
Spd
km/h
Gust
km/h
Spd
kts
Gust
kts
05/11:30pm 22.4 23.2 18.2 77 2.6 SSW 11 17 6 9 1012.7 1012.6 0.0
05/11:00pm 22.5 22.9 18.1 76 2.7 SSW 13 20 7 11 1012.8 1012.7 0.0
05/10:30pm 22.3 22.6 17.9 76 2.7 S 13 19 7 10 1012.9 1012.8 0.0
05/10:00pm 22.8 22.7 17.9 74 3.1 S 15 22 8 12 1012.9 1012.8 0.0
05/09:30pm 22.7 23.6 18.3 76 2.8 SSE 11 19 6 10 1012.5 1012.4 0.0
05/09:00pm 22.8 23.7 18.3 76 2.8 SSE 11 19 6 10 1012.1 1012.0 0.0
05/08:30pm 23.1 23.6 18.4 75 3.0 SSE 13 24 7 13 1011.7 1011.6 0.0
05/08:00pm 23.3 23.3 18.2 73 3.2 SSE 15 26 8 14 1011.5 1011.4 0.0
05/07:30pm 24.0 23.7 18.2 70 3.6 SSE 17 26 9 14 1011.2 1011.1 0.0
05/07:00pm 24.5 24.1 18.0 67 4.1 SSE 17 32 9 17 1010.7 1010.6 0.0
05/06:30pm 25.1 23.2 17.6 63 4.7 SE 24 43 13 23 1010.3 1010.2 0.0
05/06:00pm 26.3 23.1 18.2 61 5.1 SE 32 52 17 28 1010.0 1009.9 0.0
05/05:56pm 26.2 23.5 17.6 59 5.4 SE 28 52 15 28 1009.9 1009.8 0.0
05/05:30pm 26.0 23.3 18.4 63 4.8 SE 30 43 16 23 1009.6 1009.5 0.0
05/05:00pm 27.0 25.5 18.6 60 5.4 SE 24 35 13 19 1009.6 1009.5 0.0
05/04:30pm 28.0 26.0 18.4 56 6.1 SSE 26 37 14 20 1009.2 1009.1 0.0
05/04:00pm 29.0 28.6 20.2 59 5.8 SSE 22 35 12 19 1009.4 1009.3 0.0
05/03:30pm 28.3 26.2 19.0 57 6.0 SE 28 39 15 21 1009.5 1009.4 0.0
05/03:04pm 27.7 25.4 18.4 57 5.9 SE 28 46 15 25 1009.8 1009.7 0.0
05/03:00pm 27.6 26.0 18.3 57 5.9 SE 24 46 13 25 1009.8 1009.7 0.0
05/02:30pm 28.7 27.8 18.2 53 6.7 SSE 20 37 11 20 1009.9 1009.8 0.0
05/02:00pm 27.1 27.0 18.7 60 5.4 SSE 17 30 9 16 1010.0 1009.9 0.0
05/01:30pm 28.0 28.2 20.6 64 4.9 SSE 20 37 11 20 1010.2 1010.1 0.0
05/01:00pm 26.8 26.3 19.2 63 4.9 S 20 32 11 17 1010.6 1010.5 0.0
05/12:30pm 26.4 27.4 20.3 69 4.0 SSE 15 22 8 12 1010.8 1010.7 0.0
05/12:00pm 25.3 25.0 19.2 69 3.9 SE 19 30 10 16 1010.9 1010.8 0.0
05/11:30am 25.7 25.0 18.6 65 4.5 S 20 33 11 18 1010.7 1010.6 0.0
05/11:00am 24.7 25.9 19.8 74 3.2 SSE 13 19 7 10 1011.0 1010.9 0.0
05/10:30am 24.9 25.0 19.1 70 3.7 SSE 17 24 9 13 1010.7 1010.6 0.0
05/10:00am 24.5 23.6 19.1 72 3.5 S 22 32 12 17 1010.8 1010.7 0.0
05/09:30am 25.5 25.4 19.6 70 3.8 S 19 26 10 14 1010.7 1010.6 0.0
05/09:00am 24.2 24.7 19.3 74 3.1 S 15 22 8 12 1010.6 1010.5 3.4
05/08:30am 23.2 22.4 18.5 75 3.0 S 20 28 11 15 1010.2 1010.1 3.4
05/08:00am 22.9 22.6 18.2 75 2.9 SSW 17 22 9 12 1009.8 1009.7 3.4
05/07:30am 22.1 22.1 18.1 78 2.5 SSW 15 24 8 13 1009.6 1009.5 3.4
05/07:00am 21.6 22.0 18.2 81 2.1 SSW 13 19 7 10 1009.3 1009.2 3.4
05/06:30am 21.1 22.6 18.1 83 1.9 SSW 7 9 4 5 1009.0 1008.9 3.4
05/06:00am 20.5 23.1 18.3 87 1.4 SW 2 6 1 3 1008.5 1008.4 3.4
05/05:30am 20.0 21.7 17.2 84 1.7 SW 4 6 2 3 1008.3 1008.2 3.4
05/05:00am 20.6 21.9 17.6 83 1.8 SW 7 9 4 5 1008.1 1008.0 3.4
05/04:30am 20.9 21.6 17.9 83 1.9 S 11 13 6 7 1007.6 1007.5 3.4
05/04:00am 21.2 22.8 18.2 83 1.9 SSW 7 11 4 6 1008.0 1007.9 3.4
05/03:30am 21.7 23.7 18.7 83 1.9 WSW 6 7 3 4 1008.1 1008.0 3.4
05/03:00am 21.8 25.1 19.0 84 1.8 CALM 0 0 0 0 1008.3 1008.2 3.4
05/02:30am 22.2 24.2 18.8 81 2.1 SSW 6 11 3 6 1008.3 1008.2 3.4
05/02:00am 22.2 24.3 19.0 82 2.0 SW 6 7 3 4 1008.6 1008.5 3.4
05/01:30am 22.5 24.1 19.1 81 2.2 SSW 9 11 5 6 1008.9 1008.8 3.4
05/01:00am 22.4 24.4 19.2 82 2.0 SSW 7 9 4 5 1009.2 1009.1 3.4
05/12:30am 22.2 24.6 19.6 85 1.7 WSW 6 9 3 5 1009.5 1009.4 3.4
05/12:00am 22.4 25.3 19.9 86 1.6 WSW 4 6 2 3 1009.8 1009.7 3.4
 
Date/Time
EDT
Temp
°C
App
Temp
°C
Dew
Point
Rel
Hum
%
Delta-T
°C
Wind Press
QNH
hPa
Press
MSL
hPa
Rain
since 9 am
mm
Dir
 
Spd
km/h
Gust
km/h
Spd
kts
Gust
kts
04/11:30pm 22.3 25.9 19.8 86 1.6 CALM 0 0 0 0 1009.7 1009.6 3.4
04/11:00pm 22.5 25.5 20.0 86 1.6 SW 4 7 2 4 1010.0 1009.9 3.4
04/10:30pm 22.8 26.5 20.0 84 1.8 CALM 0 0 0 0 1009.9 1009.8 3.4
04/10:00pm 23.0 25.6 20.0 83 1.9 SSW 6 7 3 4 1009.8 1009.7 3.4
04/09:30pm 23.1 25.6 19.9 82 2.1 SSW 6 9 3 5 1009.6 1009.5 3.4
04/09:00pm 22.8 25.4 20.0 84 1.8 WSW 6 6 3 3 1009.4 1009.3 3.4
04/08:30pm 22.9 25.9 20.1 84 1.8 WSW 4 7 2 4 1009.1 1009.0 3.4
04/08:00pm 23.2 26.9 20.0 82 2.1 CALM 0 0 0 0 1008.7 1008.6 3.4
04/07:30pm 23.5 26.9 19.4 78 2.6 CALM 0 6 0 3 1008.3 1008.2 3.4
04/07:00pm 24.0 25.9 19.7 77 2.8 SE 9 15 5 8 1007.9 1007.8 3.4
04/06:30pm 23.9 25.8 19.8 78 2.6 SE 9 15 5 8 1007.4 1007.3 3.4
04/06:00pm 23.9 25.9 20.0 79 2.5 ESE 9 15 5 8 1007.0 1006.9 3.4
04/05:30pm 24.0 25.2 20.7 82 2.2 SE 15 20 8 11 1006.8 1006.7 3.4
04/05:00pm 23.7 27.0 21.4 87 1.5 SSE 6 7 3 4 1006.9 1006.8 3.4
04/04:30pm 23.8 26.4 19.3 76 2.9 SE 4 11 2 6 1006.9 1006.8 2.4
04/04:00pm 25.1 27.4 19.5 71 3.6 ESE 6 9 3 5 1006.9 1006.8 2.4
04/03:30pm 24.9 27.0 19.3 71 3.6 ESE 7 11 4 6 1007.1 1007.0 2.4
04/03:00pm 24.6 25.8 19.0 71 3.6 ESE 11 15 6 8 1007.5 1007.4 2.4
04/02:30pm 23.3 24.6 19.2 78 2.6 ESE 11 15 6 8 1008.0 1007.9 2.4
04/02:00pm 23.4 24.3 19.3 78 2.6 E 13 17 7 9 1008.0 1007.9 2.4
04/01:30pm 23.5 23.9 19.8 80 2.4 E 17 22 9 12 1008.2 1008.1 2.4
04/01:00pm 22.7 24.7 19.9 84 1.8 SSE 9 17 5 9 1008.4 1008.3 2.2
04/12:30pm 24.0 25.3 18.4 71 3.5 S 9 13 5 7 1008.2 1008.1 1.4
04/12:00pm 24.4 25.5 18.8 71 3.6 SSE 11 17 6 9 1008.0 1007.9 1.4
04/11:30am 24.1 24.8 19.6 76 2.9 SSE 15 24 8 13 1007.7 1007.6 1.4
04/11:00am 23.7 25.8 21.0 85 1.8 S 11 17 6 9 1007.5 1007.4 1.4
04/10:30am 22.8 24.3 21.3 91 1.0 SSW 15 20 8 11 1007.4 1007.3 1.4
04/10:00am 22.1 22.9 20.7 92 0.9 SSW 17 24 9 13 1007.4 1007.3 1.4
04/09:30am 22.1 22.9 20.7 92 0.9 SSW 17 24 9 13 1007.0 1006.9 0.6
04/09:00am 22.7 23.8 21.2 91 1.0 SSW 17 26 9 14 1006.7 1006.6 9.8
04/08:30am 23.5 25.4 22.1 92 0.9 S 15 20 8 11 1006.4 1006.3 8.6
04/08:00am 24.0 26.9 22.4 91 1.1 S 11 15 6 8 1005.9 1005.8 7.0
04/07:30am 24.0 27.2 22.4 91 1.1 SSW 9 11 5 6 1005.6 1005.5 7.0
04/07:00am 24.0 27.3 22.6 92 0.9 S 9 11 5 6 1005.3 1005.2 7.0
04/06:30am 23.7 26.9 22.3 92 0.9 SSW 9 13 5 7 1004.8 1004.7 7.0
04/06:00am 23.6 26.7 22.2 92 0.9 SSW 9 11 5 6 1004.4 1004.3 7.0
04/05:30am 23.6 27.1 22.2 92 0.9 SSW 7 9 4 5 1003.8 1003.7 7.0
04/05:00am 23.5 27.0 22.1 92 0.9 SSW 7 9 4 5 1003.6 1003.5 7.0
04/04:30am 23.4 26.4 22.0 92 0.9 S 9 11 5 6 1003.2 1003.1 7.0
04/04:00am 23.4 26.8 22.0 92 0.9 SSW 7 11 4 6 1003.2 1003.1 7.0
04/03:30am 23.4 26.8 22.0 92 0.9 S 7 11 4 6 1003.2 1003.1 7.0
04/03:00am 23.4 26.4 22.0 92 0.9 SSW 9 11 5 6 1003.2 1003.1 7.0
04/02:30am 23.4 26.8 22.0 92 0.9 SW 7 11 4 6 1003.5 1003.4 7.0
04/02:00am 23.5 27.0 21.9 91 1.1 W 6 7 3 4 1003.9 1003.8 7.0
04/01:30am 23.6 27.1 22.2 92 0.9 SSW 7 9 4 5 1003.9 1003.8 7.0
04/01:00am 23.5 26.6 22.1 92 0.9 SW 9 13 5 7 1004.2 1004.1 7.0
04/12:30am 23.8 27.4 22.4 92 0.9 WSW 7 11 4 6 1004.2 1004.1 7.0
04/12:00am 23.8 27.4 22.4 92 0.9 SW 7 11 4 6 1004.4 1004.3 6.8
 
Date/Time
EDT
Temp
°C
App
Temp
°C
Dew
Point
Rel
Hum
%
Delta-T
°C
Wind Press
QNH
hPa
Press
MSL
hPa
Rain
since 9 am
mm
Dir
 
Spd
km/h
Gust
km/h
Spd
kts
Gust
kts
03/11:30pm 24.1 27.1 22.0 88 1.4 SW 9 13 5 7 1004.6 1004.5 6.0
03/11:00pm 24.9 27.8 21.8 83 2.1 SE 9 15 5 8 1004.1 1004.0 3.8
03/10:30pm 24.8 27.3 21.7 83 2.1 SE 11 13 6 7 1003.6 1003.5 3.6
03/10:00pm 24.4 27.3 21.1 82 2.2 SE 7 11 4 6 1003.3 1003.2 3.6
03/09:30pm 23.9 26.5 20.4 81 2.3 SE 7 9 4 5 1003.3 1003.2 3.6
03/09:00pm 24.3 25.9 20.0 77 2.8 ENE 11 13 6 7 1002.5 1002.4 3.6
03/08:30pm 24.2 25.5 19.3 74 3.1 E 11 13 6 7 1002.5 1002.4 3.6
03/08:00pm 24.8 26.5 20.1 75 3.1 E 11 17 6 9 1002.1 1002.0 3.6
03/07:30pm 26.2 29.4 22.3 79 2.6 ESE 9 13 5 7 1001.6 1001.5 3.6
03/07:00pm 26.3 30.4 23.2 83 2.1 SSW 7 9 4 5 1001.2 1001.1 3.6
03/06:30pm 30.2 30.6 21.0 58 6.1 ENE 20 26 11 14 1000.6 1000.5 0.0

Other Formats:

Comma delimited format used in spreadsheet applications
http://www.bom.gov.au/fwo/IDN60801/IDN60801.94573.axf

JavaScript Object Notation format (JSON) in row-major order
http://www.bom.gov.au/fwo/IDN60801/IDN60801.94573.json